sensor_id;sensor_type;location;lat;lon;timestamp;P1;durP1;ratioP1;P2;durP2;ratioP2
16994;SDS011;8614;48.522;9.206;2022-12-29T03:01:03;9.00;;;8.50;;
16994;SDS011;8614;48.522;9.206;2022-12-29T03:03:48;8.80;;;8.30;;
16994;SDS011;8614;48.522;9.206;2022-12-29T03:06:31;9.00;;;8.40;;
16994;SDS011;8614;48.522;9.206;2022-12-29T03:09:07;8.63;;;8.00;;
16994;SDS011;8614;48.522;9.206;2022-12-29T03:11:45;8.80;;;8.30;;
16994;SDS011;8614;48.522;9.206;2022-12-29T03:14:37;8.60;;;8.10;;
16994;SDS011;8614;48.522;9.206;2022-12-29T03:17:35;8.67;;;8.17;;
16994;SDS011;8614;48.522;9.206;2022-12-29T03:20:13;8.60;;;8.07;;
16994;SDS011;8614;48.522;9.206;2022-12-29T03:22:54;8.97;;;8.37;;
16994;SDS011;8614;48.522;9.206;2022-12-29T03:25:28;8.70;;;8.20;;
16994;SDS011;8614;48.522;9.206;2022-12-29T03:28:00;8.80;;;8.20;;
16994;SDS011;8614;48.522;9.206;2022-12-29T03:30:35;9.13;;;8.53;;
16994;SDS011;8614;48.522;9.206;2022-12-29T03:33:06;8.60;;;8.10;;
16994;SDS011;8614;48.522;9.206;2022-12-29T03:35:37;8.80;;;8.30;;
16994;SDS011;8614;48.522;9.206;2022-12-29T03:38:11;9.23;;;8.63;;
16994;SDS011;8614;48.522;9.206;2022-12-29T03:40:43;9.07;;;8.30;;
16994;SDS011;8614;48.522;9.206;2022-12-29T03:43:14;8.80;;;8.20;;
16994;SDS011;8614;48.522;9.206;2022-12-29T03:45:41;8.67;;;8.17;;
16994;SDS011;8614;48.522;9.206;2022-12-29T03:48:11;8.70;;;8.20;;
16994;SDS011;8614;48.522;9.206;2022-12-29T03:50:39;8.60;;;8.10;;
16994;SDS011;8614;48.522;9.206;2022-12-29T03:53:06;9.10;;;8.50;;
16994;SDS011;8614;48.522;9.206;2022-12-29T03:55:33;9.30;;;8.80;;
16994;SDS011;8614;48.522;9.206;2022-12-29T03:58:01;8.73;;;8.23;;
16994;SDS011;8614;48.522;9.206;2022-12-29T04:00:46;9.40;;;8.90;;
16994;SDS011;8614;48.522;9.206;2022-12-29T04:03:14;9.57;;;8.90;;
16994;SDS011;8614;48.522;9.206;2022-12-29T04:05:41;9.10;;;8.50;;
16994;SDS011;8614;48.522;9.206;2022-12-29T04:08:08;8.80;;;8.30;;
16994;SDS011;8614;48.522;9.206;2022-12-29T04:10:35;9.50;;;8.90;;
16994;SDS011;8614;48.522;9.206;2022-12-29T04:13:04;9.67;;;9.00;;
16994;SDS011;8614;48.522;9.206;2022-12-29T04:15:31;9.50;;;8.80;;
16994;SDS011;8614;48.522;9.206;2022-12-29T04:17:58;9.30;;;8.63;;
16994;SDS011;8614;48.522;9.206;2022-12-29T04:20:27;9.63;;;9.03;;
16994;SDS011;8614;48.522;9.206;2022-12-29T04:23:11;9.43;;;8.93;;
16994;SDS011;8614;48.522;9.206;2022-12-29T04:25:39;9.20;;;8.70;;
16994;SDS011;8614;48.522;9.206;2022-12-29T04:28:07;9.27;;;8.67;;
16994;SDS011;8614;48.522;9.206;2022-12-29T04:30:44;10.05;;;9.45;;
16994;SDS011;8614;48.522;9.206;2022-12-29T04:33:18;9.70;;;9.10;;
16994;SDS011;8614;48.522;9.206;2022-12-29T04:35:46;10.13;;;9.53;;
16994;SDS011;8614;48.522;9.206;2022-12-29T04:38:13;10.10;;;9.50;;
16994;SDS011;8614;48.522;9.206;2022-12-29T04:40:42;10.13;;;9.53;;
16994;SDS011;8614;48.522;9.206;2022-12-29T04:43:10;9.77;;;9.17;;
16994;SDS011;8614;48.522;9.206;2022-12-29T04:45:55;9.97;;;9.30;;
16994;SDS011;8614;48.522;9.206;2022-12-29T04:48:35;10.40;;;9.70;;
16994;SDS011;8614;48.522;9.206;2022-12-29T04:51:30;9.90;;;9.40;;
16994;SDS011;8614;48.522;9.206;2022-12-29T04:53:57;9.80;;;9.30;;
16994;SDS011;8614;48.522;9.206;2022-12-29T04:56:26;10.30;;;9.70;;
16994;SDS011;8614;48.522;9.206;2022-12-29T04:58:52;10.40;;;9.70;;
16994;SDS011;8614;48.522;9.206;2022-12-29T05:01:20;10.33;;;9.73;;
16994;SDS011;8614;48.522;9.206;2022-12-29T05:03:49;9.63;;;9.13;;
16994;SDS011;8614;48.522;9.206;2022-12-29T05:06:16;9.70;;;9.20;;
16994;SDS011;8614;48.522;9.206;2022-12-29T05:08:45;9.80;;;9.30;;
16994;SDS011;8614;48.522;9.206;2022-12-29T05:11:12;10.00;;;9.40;;
16994;SDS011;8614;48.522;9.206;2022-12-29T05:13:39;10.10;;;9.40;;
16994;SDS011;8614;48.522;9.206;2022-12-29T05:16:07;10.03;;;9.43;;
16994;SDS011;8614;48.522;9.206;2022-12-29T05:18:34;9.93;;;9.33;;
16994;SDS011;8614;48.522;9.206;2022-12-29T05:21:02;10.20;;;9.60;;
16994;SDS011;8614;48.522;9.206;2022-12-29T05:23:29;10.50;;;9.80;;
16994;SDS011;8614;48.522;9.206;2022-12-29T05:26:02;9.57;;;8.97;;
16994;SDS011;8614;48.522;9.206;2022-12-29T05:28:35;9.37;;;8.87;;
16994;SDS011;8614;48.522;9.206;2022-12-29T05:31:09;9.83;;;9.20;;
16994;SDS011;8614;48.522;9.206;2022-12-29T05:33:36;10.30;;;9.60;;
16994;SDS011;8614;48.522;9.206;2022-12-29T05:36:04;10.10;;;9.50;;
16994;SDS011;8614;48.522;9.206;2022-12-29T05:38:32;9.50;;;9.00;;
16994;SDS011;8614;48.522;9.206;2022-12-29T05:40:59;9.50;;;8.93;;
16994;SDS011;8614;48.522;9.206;2022-12-29T05:43:47;10.00;;;9.40;;
16994;SDS011;8614;48.522;9.206;2022-12-29T05:46:27;9.63;;;9.13;;
16994;SDS011;8614;48.522;9.206;2022-12-29T05:49:17;9.50;;;8.90;;
16994;SDS011;8614;48.522;9.206;2022-12-29T05:51:51;9.77;;;9.23;;
16994;SDS011;8614;48.522;9.206;2022-12-29T05:54:18;10.00;;;9.40;;
16994;SDS011;8614;48.522;9.206;2022-12-29T05:56:45;9.83;;;9.23;;
16994;SDS011;8614;48.522;9.206;2022-12-29T05:59:14;9.20;;;8.70;;
16994;SDS011;8614;48.522;9.206;2022-12-29T06:01:41;9.90;;;9.30;;
16994;SDS011;8614;48.522;9.206;2022-12-29T06:04:09;9.73;;;9.03;;
16994;SDS011;8614;48.522;9.206;2022-12-29T06:06:36;9.70;;;9.10;;
16994;SDS011;8614;48.522;9.206;2022-12-29T06:09:04;10.30;;;9.70;;
16994;SDS011;8614;48.522;9.206;2022-12-29T06:11:31;10.53;;;9.80;;
16994;SDS011;8614;48.522;9.206;2022-12-29T06:13:59;10.20;;;9.47;;
16994;SDS011;8614;48.522;9.206;2022-12-29T06:16:27;10.03;;;9.43;;
16994;SDS011;8614;48.522;9.206;2022-12-29T06:18:57;9.97;;;9.37;;
16994;SDS011;8614;48.522;9.206;2022-12-29T06:21:24;10.20;;;9.53;;
16994;SDS011;8614;48.522;9.206;2022-12-29T06:23:51;10.23;;;9.53;;
16994;SDS011;8614;48.522;9.206;2022-12-29T06:26:19;9.90;;;9.30;;
16994;SDS011;8614;48.522;9.206;2022-12-29T06:28:47;10.00;;;9.40;;
16994;SDS011;8614;48.522;9.206;2022-12-29T06:31:15;11.10;;;10.50;;
16994;SDS011;8614;48.522;9.206;2022-12-29T06:33:43;11.13;;;10.37;;
16994;SDS011;8614;48.522;9.206;2022-12-29T06:36:10;11.50;;;10.80;;
16994;SDS011;8614;48.522;9.206;2022-12-29T06:38:38;11.33;;;10.57;;
16994;SDS011;8614;48.522;9.206;2022-12-29T06:41:05;11.53;;;10.63;;
16994;SDS011;8614;48.522;9.206;2022-12-29T06:43:51;11.20;;;10.50;;
16994;SDS011;8614;48.522;9.206;2022-12-29T06:46:27;11.03;;;10.33;;
16994;SDS011;8614;48.522;9.206;2022-12-29T06:48:56;11.13;;;10.33;;
16994;SDS011;8614;48.522;9.206;2022-12-29T06:51:22;10.93;;;10.33;;
16994;SDS011;8614;48.522;9.206;2022-12-29T06:53:49;11.13;;;10.43;;
16994;SDS011;8614;48.522;9.206;2022-12-29T06:56:16;10.67;;;10.07;;
16994;SDS011;8614;48.522;9.206;2022-12-29T06:58:43;10.87;;;10.10;;
16994;SDS011;8614;48.522;9.206;2022-12-29T07:01:10;11.80;;;11.10;;
16994;SDS011;8614;48.522;9.206;2022-12-29T07:03:37;10.80;;;10.20;;
16994;SDS011;8614;48.522;9.206;2022-12-29T07:06:05;11.00;;;10.40;;
16994;SDS011;8614;48.522;9.206;2022-12-29T07:08:32;11.20;;;10.50;;
16994;SDS011;8614;48.522;9.206;2022-12-29T07:10:59;11.33;;;10.43;;
16994;SDS011;8614;48.522;9.206;2022-12-29T07:13:26;11.97;;;11.17;;
16994;SDS011;8614;48.522;9.206;2022-12-29T07:15:52;11.60;;;10.90;;
16994;SDS011;8614;48.522;9.206;2022-12-29T07:18:19;11.80;;;11.10;;
16994;SDS011;8614;48.522;9.206;2022-12-29T07:20:46;11.30;;;10.70;;
16994;SDS011;8614;48.522;9.206;2022-12-29T07:23:14;11.30;;;10.63;;
16994;SDS011;8614;48.522;9.206;2022-12-29T07:25:41;10.97;;;10.20;;
16994;SDS011;8614;48.522;9.206;2022-12-29T07:28:08;11.10;;;10.30;;
16994;SDS011;8614;48.522;9.206;2022-12-29T07:30:36;11.20;;;10.50;;
16994;SDS011;8614;48.522;9.206;2022-12-29T07:33:03;11.17;;;10.57;;
16994;SDS011;8614;48.522;9.206;2022-12-29T07:35:30;11.33;;;10.63;;
16994;SDS011;8614;48.522;9.206;2022-12-29T07:37:57;10.90;;;10.20;;
16994;SDS011;8614;48.522;9.206;2022-12-29T07:40:25;10.73;;;10.10;;
16994;SDS011;8614;48.522;9.206;2022-12-29T07:42:52;10.60;;;10.00;;
16994;SDS011;8614;48.522;9.206;2022-12-29T07:45:28;10.53;;;9.93;;
16994;SDS011;8614;48.522;9.206;2022-12-29T07:48:10;11.07;;;10.17;;
16994;SDS011;8614;48.522;9.206;2022-12-29T07:50:36;10.73;;;10.07;;
16994;SDS011;8614;48.522;9.206;2022-12-29T07:53:03;10.50;;;9.90;;
16994;SDS011;8614;48.522;9.206;2022-12-29T07:55:31;10.77;;;10.07;;
16994;SDS011;8614;48.522;9.206;2022-12-29T07:57:58;11.00;;;10.30;;
16994;SDS011;8614;48.522;9.206;2022-12-29T08:00:25;10.60;;;10.00;;
16994;SDS011;8614;48.522;9.206;2022-12-29T08:02:52;10.83;;;10.10;;
16994;SDS011;8614;48.522;9.206;2022-12-29T08:05:19;10.43;;;9.80;;
16994;SDS011;8614;48.522;9.206;2022-12-29T08:07:46;10.70;;;10.10;;
16994;SDS011;8614;48.522;9.206;2022-12-29T08:10:13;10.37;;;9.77;;
16994;SDS011;8614;48.522;9.206;2022-12-29T08:12:42;11.00;;;9.90;;
16994;SDS011;8614;48.522;9.206;2022-12-29T08:15:10;10.60;;;9.80;;
16994;SDS011;8614;48.522;9.206;2022-12-29T08:17:37;10.60;;;10.00;;
16994;SDS011;8614;48.522;9.206;2022-12-29T08:20:05;11.00;;;10.30;;
16994;SDS011;8614;48.522;9.206;2022-12-29T08:22:32;10.83;;;10.23;;
16994;SDS011;8614;48.522;9.206;2022-12-29T08:24:59;10.57;;;9.97;;
16994;SDS011;8614;48.522;9.206;2022-12-29T08:27:26;10.90;;;10.20;;
16994;SDS011;8614;48.522;9.206;2022-12-29T08:29:54;11.10;;;10.50;;
16994;SDS011;8614;48.522;9.206;2022-12-29T08:32:21;11.03;;;10.33;;
16994;SDS011;8614;48.522;9.206;2022-12-29T08:34:48;10.97;;;10.33;;
16994;SDS011;8614;48.522;9.206;2022-12-29T08:37:15;10.60;;;10.00;;
16994;SDS011;8614;48.522;9.206;2022-12-29T08:39:42;10.47;;;9.87;;
16994;SDS011;8614;48.522;9.206;2022-12-29T08:42:09;10.93;;;10.30;;
16994;SDS011;8614;48.522;9.206;2022-12-29T08:44:36;11.17;;;10.30;;
16994;SDS011;8614;48.522;9.206;2022-12-29T08:47:04;11.07;;;10.47;;
16994;SDS011;8614;48.522;9.206;2022-12-29T08:49:31;11.03;;;10.43;;
16994;SDS011;8614;48.522;9.206;2022-12-29T08:51:59;11.73;;;10.70;;
16994;SDS011;8614;48.522;9.206;2022-12-29T08:54:26;11.00;;;10.30;;
16994;SDS011;8614;48.522;9.206;2022-12-29T08:56:53;10.80;;;10.20;;
16994;SDS011;8614;48.522;9.206;2022-12-29T08:59:24;10.90;;;10.20;;
16994;SDS011;8614;48.522;9.206;2022-12-29T09:01:51;10.60;;;9.80;;
16994;SDS011;8614;48.522;9.206;2022-12-29T09:04:19;10.57;;;9.87;;
16994;SDS011;8614;48.522;9.206;2022-12-29T09:06:48;10.67;;;9.97;;
16994;SDS011;8614;48.522;9.206;2022-12-29T09:09:15;10.70;;;10.00;;
16994;SDS011;8614;48.522;9.206;2022-12-29T09:11:43;10.63;;;9.83;;
16994;SDS011;8614;48.522;9.206;2022-12-29T09:14:10;11.30;;;10.50;;
16994;SDS011;8614;48.522;9.206;2022-12-29T09:16:37;10.70;;;10.00;;
16994;SDS011;8614;48.522;9.206;2022-12-29T09:19:04;10.30;;;9.70;;
16994;SDS011;8614;48.522;9.206;2022-12-29T09:21:33;11.30;;;10.40;;
16994;SDS011;8614;48.522;9.206;2022-12-29T09:23:59;10.77;;;10.10;;
16994;SDS011;8614;48.522;9.206;2022-12-29T09:26:26;10.70;;;9.90;;
16994;SDS011;8614;48.522;9.206;2022-12-29T09:28:53;10.60;;;9.80;;
16994;SDS011;8614;48.522;9.206;2022-12-29T09:31:20;10.60;;;10.00;;
16994;SDS011;8614;48.522;9.206;2022-12-29T09:33:47;10.93;;;10.30;;
16994;SDS011;8614;48.522;9.206;2022-12-29T09:36:13;10.60;;;9.80;;
16994;SDS011;8614;48.522;9.206;2022-12-29T09:38:42;10.80;;;10.10;;
16994;SDS011;8614;48.522;9.206;2022-12-29T09:41:11;10.40;;;9.70;;
16994;SDS011;8614;48.522;9.206;2022-12-29T09:46:34;10.93;;;10.23;;
16994;SDS011;8614;48.522;9.206;2022-12-29T09:49:08;10.57;;;9.87;;
16994;SDS011;8614;48.522;9.206;2022-12-29T09:51:41;10.13;;;9.53;;
16994;SDS011;8614;48.522;9.206;2022-12-29T09:54:19;10.47;;;9.77;;
16994;SDS011;8614;48.522;9.206;2022-12-29T09:56:55;10.40;;;9.70;;
16994;SDS011;8614;48.522;9.206;2022-12-29T09:59:23;10.40;;;9.70;;
16994;SDS011;8614;48.522;9.206;2022-12-29T10:01:56;10.00;;;9.40;;
16994;SDS011;8614;48.522;9.206;2022-12-29T10:04:31;10.00;;;9.40;;
16994;SDS011;8614;48.522;9.206;2022-12-29T10:06:59;9.90;;;9.30;;
16994;SDS011;8614;48.522;9.206;2022-12-29T10:09:33;10.97;;;9.37;;
16994;SDS011;8614;48.522;9.206;2022-12-29T10:12:08;10.43;;;9.73;;
16994;SDS011;8614;48.522;9.206;2022-12-29T10:14:44;9.83;;;9.23;;
16994;SDS011;8614;48.522;9.206;2022-12-29T10:17:22;10.10;;;9.50;;
16994;SDS011;8614;48.522;9.206;2022-12-29T10:19:59;10.00;;;9.40;;
16994;SDS011;8614;48.522;9.206;2022-12-29T10:22:45;10.30;;;9.70;;
16994;SDS011;8614;48.522;9.206;2022-12-29T10:25:27;11.10;;;10.40;;
16994;SDS011;8614;48.522;9.206;2022-12-29T10:27:59;10.30;;;9.60;;
16994;SDS011;8614;48.522;9.206;2022-12-29T10:30:31;10.33;;;9.63;;
16994;SDS011;8614;48.522;9.206;2022-12-29T10:33:00;10.53;;;9.83;;
16994;SDS011;8614;48.522;9.206;2022-12-29T10:35:32;10.33;;;9.63;;
16994;SDS011;8614;48.522;9.206;2022-12-29T10:38:05;10.63;;;9.93;;
16994;SDS011;8614;48.522;9.206;2022-12-29T10:40:43;10.50;;;9.80;;
16994;SDS011;8614;48.522;9.206;2022-12-29T10:43:17;11.03;;;10.23;;
16994;SDS011;8614;48.522;9.206;2022-12-29T10:45:50;11.10;;;10.30;;
16994;SDS011;8614;48.522;9.206;2022-12-29T10:48:21;10.40;;;9.70;;
16994;SDS011;8614;48.522;9.206;2022-12-29T10:50:51;10.57;;;9.83;;
16994;SDS011;8614;48.522;9.206;2022-12-29T10:53:22;10.60;;;9.70;;
16994;SDS011;8614;48.522;9.206;2022-12-29T10:55:53;10.57;;;9.80;;
16994;SDS011;8614;48.522;9.206;2022-12-29T10:58:21;10.33;;;9.73;;
16994;SDS011;8614;48.522;9.206;2022-12-29T11:00:49;9.80;;;9.20;;
16994;SDS011;8614;48.522;9.206;2022-12-29T11:06:15;10.57;;;9.90;;
16994;SDS011;8614;48.522;9.206;2022-12-29T11:08:50;9.67;;;9.07;;
16994;SDS011;8614;48.522;9.206;2022-12-29T11:11:24;10.10;;;9.50;;
16994;SDS011;8614;48.522;9.206;2022-12-29T11:13:57;10.50;;;9.80;;
16994;SDS011;8614;48.522;9.206;2022-12-29T11:16:28;11.30;;;10.50;;
16994;SDS011;8614;48.522;9.206;2022-12-29T11:18:56;11.00;;;10.00;;
16994;SDS011;8614;48.522;9.206;2022-12-29T11:21:25;10.30;;;9.60;;
16994;SDS011;8614;48.522;9.206;2022-12-29T11:23:57;10.70;;;9.90;;
16994;SDS011;8614;48.522;9.206;2022-12-29T11:26:27;10.47;;;9.77;;
16994;SDS011;8614;48.522;9.206;2022-12-29T11:31:56;9.80;;;9.10;;
16994;SDS011;8614;48.522;9.206;2022-12-29T11:34:25;9.50;;;8.90;;
16994;SDS011;8614;48.522;9.206;2022-12-29T11:36:58;10.53;;;9.73;;
16994;SDS011;8614;48.522;9.206;2022-12-29T11:39:33;10.00;;;9.30;;
16994;SDS011;8614;48.522;9.206;2022-12-29T11:42:04;10.30;;;9.70;;
16994;SDS011;8614;48.522;9.206;2022-12-29T11:44:41;10.53;;;9.93;;
16994;SDS011;8614;48.522;9.206;2022-12-29T11:47:11;11.20;;;10.50;;
16994;SDS011;8614;48.522;9.206;2022-12-29T11:49:48;10.73;;;10.07;;
16994;SDS011;8614;48.522;9.206;2022-12-29T11:52:20;11.27;;;10.50;;
16994;SDS011;8614;48.522;9.206;2022-12-29T11:54:48;9.90;;;9.20;;
16994;SDS011;8614;48.522;9.206;2022-12-29T11:57:17;10.23;;;9.53;;
16994;SDS011;8614;48.522;9.206;2022-12-29T11:59:48;10.37;;;9.47;;
16994;SDS011;8614;48.522;9.206;2022-12-29T12:02:25;10.23;;;9.60;;
16994;SDS011;8614;48.522;9.206;2022-12-29T12:05:13;11.13;;;10.43;;
16994;SDS011;8614;48.522;9.206;2022-12-29T12:07:54;11.43;;;10.63;;
16994;SDS011;8614;48.522;9.206;2022-12-29T12:10:27;10.90;;;10.20;;
16994;SDS011;8614;48.522;9.206;2022-12-29T12:13:04;10.30;;;9.70;;
16994;SDS011;8614;48.522;9.206;2022-12-29T12:15:35;10.90;;;10.13;;
16994;SDS011;8614;48.522;9.206;2022-12-29T12:18:08;11.53;;;10.83;;
16994;SDS011;8614;48.522;9.206;2022-12-29T12:20:42;11.20;;;10.57;;
16994;SDS011;8614;48.522;9.206;2022-12-29T12:23:18;10.60;;;9.80;;
16994;SDS011;8614;48.522;9.206;2022-12-29T12:25:57;10.40;;;9.80;;
16994;SDS011;8614;48.522;9.206;2022-12-29T12:28:33;11.80;;;11.10;;
16994;SDS011;8614;48.522;9.206;2022-12-29T12:31:05;11.73;;;11.00;;
16994;SDS011;8614;48.522;9.206;2022-12-29T12:33:38;10.57;;;9.90;;
16994;SDS011;8614;48.522;9.206;2022-12-29T12:36:26;10.20;;;9.60;;
16994;SDS011;8614;48.522;9.206;2022-12-29T12:39:06;10.57;;;9.87;;
16994;SDS011;8614;48.522;9.206;2022-12-29T12:41:39;10.20;;;9.60;;
16994;SDS011;8614;48.522;9.206;2022-12-29T12:44:18;10.33;;;9.73;;
16994;SDS011;8614;48.522;9.206;2022-12-29T12:47:06;10.60;;;9.90;;
16994;SDS011;8614;48.522;9.206;2022-12-29T12:49:55;10.47;;;9.80;;
16994;SDS011;8614;48.522;9.206;2022-12-29T12:52:51;11.33;;;10.50;;
16994;SDS011;8614;48.522;9.206;2022-12-29T12:55:35;11.57;;;10.90;;
16994;SDS011;8614;48.522;9.206;2022-12-29T12:58:11;10.63;;;9.97;;
16994;SDS011;8614;48.522;9.206;2022-12-29T13:00:50;10.73;;;10.13;;
16994;SDS011;8614;48.522;9.206;2022-12-29T13:03:31;10.60;;;10.00;;
16994;SDS011;8614;48.522;9.206;2022-12-29T13:06:10;11.30;;;10.40;;
16994;SDS011;8614;48.522;9.206;2022-12-29T13:08:49;10.23;;;9.63;;
16994;SDS011;8614;48.522;9.206;2022-12-29T13:11:33;10.60;;;9.90;;
16994;SDS011;8614;48.522;9.206;2022-12-29T13:14:18;10.90;;;10.30;;
16994;SDS011;8614;48.522;9.206;2022-12-29T13:16:53;10.53;;;9.83;;
16994;SDS011;8614;48.522;9.206;2022-12-29T13:19:28;11.00;;;10.27;;
16994;SDS011;8614;48.522;9.206;2022-12-29T13:22:02;10.27;;;9.60;;
16994;SDS011;8614;48.522;9.206;2022-12-29T13:24:37;10.20;;;9.50;;
16994;SDS011;8614;48.522;9.206;2022-12-29T13:27:13;10.87;;;10.13;;
16994;SDS011;8614;48.522;9.206;2022-12-29T13:29:47;11.30;;;10.50;;
16994;SDS011;8614;48.522;9.206;2022-12-29T13:32:26;10.63;;;9.93;;
16994;SDS011;8614;48.522;9.206;2022-12-29T13:35:04;10.90;;;10.20;;
16994;SDS011;8614;48.522;9.206;2022-12-29T13:37:45;11.00;;;10.30;;
16994;SDS011;8614;48.522;9.206;2022-12-29T13:40:18;10.63;;;10.03;;
16994;SDS011;8614;48.522;9.206;2022-12-29T13:42:49;10.43;;;9.83;;
16994;SDS011;8614;48.522;9.206;2022-12-29T13:45:17;11.03;;;10.23;;
16994;SDS011;8614;48.522;9.206;2022-12-29T13:47:48;10.40;;;9.80;;
16994;SDS011;8614;48.522;9.206;2022-12-29T13:50:23;11.10;;;10.40;;
16994;SDS011;8614;48.522;9.206;2022-12-29T13:52:55;12.57;;;11.53;;
16994;SDS011;8614;48.522;9.206;2022-12-29T13:55:32;11.83;;;11.07;;
16994;SDS011;8614;48.522;9.206;2022-12-29T13:58:04;12.00;;;11.20;;
16994;SDS011;8614;48.522;9.206;2022-12-29T14:00:41;10.73;;;10.03;;
16994;SDS011;8614;48.522;9.206;2022-12-29T14:03:27;11.60;;;10.70;;
16994;SDS011;8614;48.522;9.206;2022-12-29T14:06:13;11.13;;;10.33;;
16994;SDS011;8614;48.522;9.206;2022-12-29T14:08:44;11.23;;;10.53;;
16994;SDS011;8614;48.522;9.206;2022-12-29T14:11:13;11.00;;;10.30;;
16994;SDS011;8614;48.522;9.206;2022-12-29T14:13:42;11.20;;;10.37;;
16994;SDS011;8614;48.522;9.206;2022-12-29T14:16:21;10.80;;;10.20;;
16994;SDS011;8614;48.522;9.206;2022-12-29T14:18:54;10.83;;;10.13;;
16994;SDS011;8614;48.522;9.206;2022-12-29T14:21:23;11.20;;;10.50;;
16994;SDS011;8614;48.522;9.206;2022-12-29T14:23:57;11.00;;;10.30;;
16994;SDS011;8614;48.522;9.206;2022-12-29T14:26:42;10.77;;;9.93;;
16994;SDS011;8614;48.522;9.206;2022-12-29T14:38:06;10.97;;;10.27;;
16994;SDS011;8614;48.522;9.206;2022-12-29T14:40:40;10.97;;;10.07;;
16994;SDS011;8614;48.522;9.206;2022-12-29T14:43:11;10.63;;;10.03;;
16994;SDS011;8614;48.522;9.206;2022-12-29T14:45:42;11.10;;;10.20;;
16994;SDS011;8614;48.522;9.206;2022-12-29T14:48:30;11.73;;;10.93;;
16994;SDS011;8614;48.522;9.206;2022-12-29T14:51:25;10.80;;;10.20;;
16994;SDS011;8614;48.522;9.206;2022-12-29T14:53:56;10.73;;;10.10;;
16994;SDS011;8614;48.522;9.206;2022-12-29T14:56:25;10.70;;;10.10;;
16994;SDS011;8614;48.522;9.206;2022-12-29T14:58:54;10.67;;;9.87;;
16994;SDS011;8614;48.522;9.206;2022-12-29T15:01:24;10.90;;;10.23;;
16994;SDS011;8614;48.522;9.206;2022-12-29T15:03:56;10.80;;;10.03;;
16994;SDS011;8614;48.522;9.206;2022-12-29T15:06:28;10.50;;;9.80;;
16994;SDS011;8614;48.522;9.206;2022-12-29T15:08:59;10.97;;;10.17;;
16994;SDS011;8614;48.522;9.206;2022-12-29T15:11:41;10.73;;;10.13;;
16994;SDS011;8614;48.522;9.206;2022-12-29T15:14:30;11.73;;;10.93;;
16994;SDS011;8614;48.522;9.206;2022-12-29T15:17:08;11.67;;;10.80;;
16994;SDS011;8614;48.522;9.206;2022-12-29T15:19:36;11.03;;;10.37;;
16994;SDS011;8614;48.522;9.206;2022-12-29T15:22:05;11.37;;;10.57;;
16994;SDS011;8614;48.522;9.206;2022-12-29T15:24:32;10.70;;;10.10;;
16994;SDS011;8614;48.522;9.206;2022-12-29T15:27:02;11.00;;;10.30;;
16994;SDS011;8614;48.522;9.206;2022-12-29T15:29:35;11.33;;;10.63;;
16994;SDS011;8614;48.522;9.206;2022-12-29T15:32:15;11.13;;;10.43;;
16994;SDS011;8614;48.522;9.206;2022-12-29T15:34:44;11.00;;;10.40;;
16994;SDS011;8614;48.522;9.206;2022-12-29T15:37:21;11.10;;;10.40;;
16994;SDS011;8614;48.522;9.206;2022-12-29T15:39:49;11.30;;;10.50;;
16994;SDS011;8614;48.522;9.206;2022-12-29T15:42:23;11.03;;;10.33;;
16994;SDS011;8614;48.522;9.206;2022-12-29T15:44:58;12.33;;;11.53;;
16994;SDS011;8614;48.522;9.206;2022-12-29T15:47:29;11.57;;;10.77;;
16994;SDS011;8614;48.522;9.206;2022-12-29T15:49:59;11.80;;;11.00;;
16994;SDS011;8614;48.522;9.206;2022-12-29T15:52:30;11.83;;;11.13;;
16994;SDS011;8614;48.522;9.206;2022-12-29T15:54:59;11.30;;;10.60;;
16994;SDS011;8614;48.522;9.206;2022-12-29T15:57:29;11.33;;;10.60;;
16994;SDS011;8614;48.522;9.206;2022-12-29T15:59:58;10.87;;;10.20;;
16994;SDS011;8614;48.522;9.206;2022-12-29T16:02:26;11.30;;;10.60;;
16994;SDS011;8614;48.522;9.206;2022-12-29T16:04:55;11.37;;;10.67;;
16994;SDS011;8614;48.522;9.206;2022-12-29T16:07:28;11.30;;;10.60;;
16994;SDS011;8614;48.522;9.206;2022-12-29T16:10:21;10.90;;;10.20;;
16994;SDS011;8614;48.522;9.206;2022-12-29T16:13:00;11.60;;;10.90;;
16994;SDS011;8614;48.522;9.206;2022-12-29T16:15:29;12.10;;;11.30;;
16994;SDS011;8614;48.522;9.206;2022-12-29T16:17:57;12.17;;;11.20;;
16994;SDS011;8614;48.522;9.206;2022-12-29T16:20:24;12.00;;;11.20;;
16994;SDS011;8614;48.522;9.206;2022-12-29T16:22:59;11.97;;;11.17;;
16994;SDS011;8614;48.522;9.206;2022-12-29T16:25:27;11.77;;;11.03;;
16994;SDS011;8614;48.522;9.206;2022-12-29T16:27:56;11.83;;;11.07;;
16994;SDS011;8614;48.522;9.206;2022-12-29T16:30:26;11.43;;;10.73;;
16994;SDS011;8614;48.522;9.206;2022-12-29T16:32:54;11.73;;;11.00;;
16994;SDS011;8614;48.522;9.206;2022-12-29T16:35:23;12.27;;;11.47;;
16994;SDS011;8614;48.522;9.206;2022-12-29T16:40:51;11.70;;;11.00;;
16994;SDS011;8614;48.522;9.206;2022-12-29T16:43:20;11.93;;;11.20;;
16994;SDS011;8614;48.522;9.206;2022-12-29T16:48:51;11.80;;;11.10;;
16994;SDS011;8614;48.522;9.206;2022-12-29T16:51:21;11.37;;;10.53;;
16994;SDS011;8614;48.522;9.206;2022-12-29T16:53:57;11.57;;;10.77;;
16994;SDS011;8614;48.522;9.206;2022-12-29T16:56:49;11.23;;;10.53;;
16994;SDS011;8614;48.522;9.206;2022-12-29T16:59:23;11.37;;;10.73;;
16994;SDS011;8614;48.522;9.206;2022-12-29T17:02:01;11.27;;;10.57;;
16994;SDS011;8614;48.522;9.206;2022-12-29T17:04:32;11.80;;;11.00;;
16994;SDS011;8614;48.522;9.206;2022-12-29T17:06:59;12.10;;;11.40;;
16994;SDS011;8614;48.522;9.206;2022-12-29T17:09:27;12.37;;;11.67;;
16994;SDS011;8614;48.522;9.206;2022-12-29T17:12:01;11.77;;;11.07;;
16994;SDS011;8614;48.522;9.206;2022-12-29T17:14:41;11.77;;;11.07;;
16994;SDS011;8614;48.522;9.206;2022-12-29T17:17:12;11.60;;;10.90;;
16994;SDS011;8614;48.522;9.206;2022-12-29T17:19:42;11.80;;;11.10;;
16994;SDS011;8614;48.522;9.206;2022-12-29T17:22:14;11.87;;;11.07;;
16994;SDS011;8614;48.522;9.206;2022-12-29T17:24:44;11.70;;;10.87;;
16994;SDS011;8614;48.522;9.206;2022-12-29T17:27:16;11.60;;;10.80;;
16994;SDS011;8614;48.522;9.206;2022-12-29T17:29:48;11.53;;;10.83;;
16994;SDS011;8614;48.522;9.206;2022-12-29T17:32:16;11.90;;;11.20;;
16994;SDS011;8614;48.522;9.206;2022-12-29T17:34:43;11.97;;;11.27;;
16994;SDS011;8614;48.522;9.206;2022-12-29T17:37:29;11.67;;;11.00;;
16994;SDS011;8614;48.522;9.206;2022-12-29T17:40:00;11.90;;;11.20;;
16994;SDS011;8614;48.522;9.206;2022-12-29T17:42:27;12.20;;;11.30;;
16994;SDS011;8614;48.522;9.206;2022-12-29T17:44:57;12.17;;;11.33;;
16994;SDS011;8614;48.522;9.206;2022-12-29T17:47:24;12.27;;;11.37;;
16994;SDS011;8614;48.522;9.206;2022-12-29T17:49:51;12.23;;;11.37;;
16994;SDS011;8614;48.522;9.206;2022-12-29T17:52:17;11.73;;;10.93;;
16994;SDS011;8614;48.522;9.206;2022-12-29T17:54:46;12.00;;;11.20;;
16994;SDS011;8614;48.522;9.206;2022-12-29T17:57:17;11.83;;;11.07;;
16994;SDS011;8614;48.522;9.206;2022-12-29T17:59:44;11.90;;;11.20;;
16994;SDS011;8614;48.522;9.206;2022-12-29T18:02:21;11.60;;;10.90;;
16994;SDS011;8614;48.522;9.206;2022-12-29T18:04:54;11.23;;;10.60;;
16994;SDS011;8614;48.522;9.206;2022-12-29T18:07:21;11.67;;;10.97;;
16994;SDS011;8614;48.522;9.206;2022-12-29T18:09:50;11.70;;;11.00;;
16994;SDS011;8614;48.522;9.206;2022-12-29T18:12:24;11.40;;;10.60;;
16994;SDS011;8614;48.522;9.206;2022-12-29T18:14:55;11.30;;;10.57;;
16994;SDS011;8614;48.522;9.206;2022-12-29T18:17:22;11.30;;;10.60;;
16994;SDS011;8614;48.522;9.206;2022-12-29T18:19:49;11.07;;;10.37;;
16994;SDS011;8614;48.522;9.206;2022-12-29T18:22:19;11.10;;;10.40;;
16994;SDS011;8614;48.522;9.206;2022-12-29T18:24:49;11.20;;;10.53;;
16994;SDS011;8614;48.522;9.206;2022-12-29T18:27:16;11.27;;;10.57;;
16994;SDS011;8614;48.522;9.206;2022-12-29T18:29:45;11.70;;;10.93;;
16994;SDS011;8614;48.522;9.206;2022-12-29T18:32:12;11.60;;;10.90;;
16994;SDS011;8614;48.522;9.206;2022-12-29T18:34:39;11.47;;;10.67;;